Aeroporto :
LOGIN :

Iscrizione | Disclaimer

   EN    FR    IT 

 










Sommario :    VFR   VFR Marginale   IFR   IFR Intensivo   IFR Molto Intensivo
Visibilità : 
Base nubi : 
>= 8 km
>= 3000ft
5 / 8 km
1000 / 3000 ft
1500m / 5 km
500 / 1000 ft
800 / 1500m
200 / 500 ft
< 800m
< 200 ft
Simboli :   Temporali  Nebbia  Neve Forte  Precipitazioni Forti  Vento > 20 kt
SIGMETs :   Varie  Temporali  Ghiacco  Turbolenza  Onda orograficha  Ceneri Vulcaniche







- Altitudine del aeroporto : 20 ft


EBFN - Koksijde

ULTIMO METAR :
  • 261125Z AUTO 30009KT 9999 NCD 10/02 Q1034 BLU

METARs OBSOLETI :
  • 261105Z 29010KT 9999 FEW025 BKN250 10/03 Q1034 BLU FCST CANCEL
  • 261055Z 29011KT 9999 FEW025 BKN250 10/03 Q1034 BLU BLU
  • 261025Z 29010KT 9999 FEW017 SCT046 BKN140 09/04 Q1034 BLU BLU
  • 260955Z 30010KT 9999 FEW017 SCT046 BKN140 09/03 Q1034 BLU BLU
  • 260925Z 29010KT 9999 FEW017 SCT046 BKN140 09/04 Q1034 BLU BLU
  • 260855Z 31009KT 9999 FEW017 SCT046 BKN140 08/04 Q1034 BLU BLU

TAF TAF EBFN
Valido dal 26 a 10 ore il 26 a 19 ore UTC


260841Z 2610/2619 30008KT 9999 FEW020
Nessun NOTAM noto per questo aeroporto.



MetMap, La meteo Aeronautica in un colpo d'occhio ! - Copyright ORBIFLY Dicembre 2007 - Disclaimer

ORBIFLY MET'MAP TEAM :

Programmazione e sviluppo : Alexandra Zaïnal
Concezione e sviluppo : Baudouin d'Aumeries
Co-Programmazione e sviluppo : Marc-Olivier Méhu
Supporto tecnico e logistico : Manuel Goepfert
Aiuto per la traduzione : Arnaldo La Scala

Contatto : metmap@orbifly.com




FONTI E CREDITI :

   NOAA